Time;durP1;ratioP1;P1;durP2;ratioP2;P2;SDS_P1;SDS_P2;PMS_P1;PMS_P2;Temp;Humidity;BMP_temperature;BMP_pressure;BME280_temperature;BME280_humidity;BME280_pressure;Samples;Min_cycle;Max_cycle;Signal;HPM_P1;HPM_P2
2022/04/30 00:01:11;;;;;;;70.10;32.73;;;;;;;2.74;67.72;99748.23;2248382;79;21003;-81
2022/04/30 00:04:11;;;;;;;91.93;33.83;;;;;;;2.69;67.62;99749.27;2247924;79;20927;-81
2022/04/30 00:07:11;;;;;;;71.87;32.97;;;;;;;2.61;67.81;99741.89;2248005;79;20951;-82
2022/04/30 00:10:13;;;;;;;76.43;34.47;;;;;;;2.56;67.69;99738.62;2248456;79;20899;-81
2022/04/30 00:13:12;;;;;;;70.70;33.53;;;;;;;2.49;67.88;99737.77;2247912;79;20924;-81
2022/04/30 00:16:13;;;;;;;77.23;35.80;;;;;;;2.47;68.08;99739.38;2248128;79;21291;-82
2022/04/30 00:19:13;;;;;;;110.83;59.43;;;;;;;4.81;88.08;99729.56;2248564;79;20907;-82
2022/04/30 00:22:13;;;;;;;85.37;40.33;;;;;;;8.05;72.82;99717.92;2248430;79;20971;-82
2022/04/30 00:25:14;;;;;;;77.50;35.33;;;;;;;7.26;62.33;99721.02;2248484;79;21299;-82
2022/04/30 00:28:14;;;;;;;62.10;31.00;;;;;;;6.01;61.08;99723.96;2248498;79;20924;-82
2022/04/30 00:31:15;;;;;;;62.70;30.43;;;;;;;5.09;61.36;99715.84;2247949;79;20936;-82
2022/04/30 00:34:15;;;;;;;64.70;32.40;;;;;;;4.36;62.21;99728.19;2248377;79;21280;-82
2022/04/30 00:37:15;;;;;;;64.40;30.47;;;;;;;3.88;62.96;99726.13;2248544;79;20932;-82
2022/04/30 00:40:16;;;;;;;121.43;33.53;;;;;;;3.56;63.65;99725.73;2248238;79;20984;-82
2022/04/30 00:43:16;;;;;;;65.23;28.97;;;;;;;3.27;64.35;99728.41;2246555;79;20963;-82
2022/04/30 00:46:17;;;;;;;63.37;30.50;;;;;;;3.03;64.88;99730.12;2246752;79;20939;-82
2022/04/30 00:49:17;;;;;;;62.37;31.67;;;;;;;2.79;65.24;99729.64;2246392;79;20998;-82
2022/04/30 00:52:18;;;;;;;58.93;30.30;;;;;;;2.64;65.92;99733.05;2246111;79;21166;-82
2022/04/30 00:55:19;;;;;;;62.13;29.57;;;;;;;2.49;66.37;99726.58;2245499;77;21006;-81
2022/04/30 00:58:18;;;;;;;61.17;30.50;;;;;;;2.37;66.83;99728.05;2246117;79;21310;-82
2022/04/30 01:01:19;;;;;;;63.90;31.17;;;;;;;2.31;67.34;99722.94;2246394;79;20986;-82
2022/04/30 01:04:19;;;;;;;62.07;30.80;;;;;;;2.25;67.45;99731.20;2247372;79;20960;-82
2022/04/30 01:07:19;;;;;;;56.23;27.23;;;;;;;2.21;67.64;99729.24;2248464;79;20933;-81
2022/04/30 01:10:20;;;;;;;63.07;29.17;;;;;;;2.11;67.99;99727.81;2248305;79;20928;-81
2022/04/30 01:13:20;;;;;;;61.63;29.07;;;;;;;2.07;67.91;99726.26;2248494;79;20900;-82
2022/04/30 01:16:21;;;;;;;63.40;30.90;;;;;;;2.00;67.99;99726.30;2248293;79;20880;-81
2022/04/30 01:19:23;;;;;;;62.90;29.23;;;;;;;1.95;68.23;99726.82;2248329;79;20918;-81
2022/04/30 01:22:22;;;;;;;100.90;58.60;;;;;;;1.87;68.53;99720.81;2247617;78;21029;-82
2022/04/30 01:25:22;;;;;;;116.20;64.60;;;;;;;4.60;90.35;99711.30;2247459;79;20943;-82
2022/04/30 01:28:22;;;;;;;71.60;39.03;;;;;;;6.57;68.97;99706.07;2248324;79;20892;-82
2022/04/30 01:38:01;;;;;;;60.67;27.33;;;;;;;3.57;63.72;99723.63;2248371;78;21003;-82
2022/04/30 01:41:01;;;;;;;58.83;27.23;;;;;;;3.01;64.79;99723.99;2248249;79;20942;-81
2022/04/30 01:44:02;;;;;;;54.40;27.13;;;;;;;2.69;65.76;99725.17;2248255;79;21311;-82
2022/04/30 01:47:02;;;;;;;54.13;25.10;;;;;;;2.45;66.14;99722.05;2248063;79;20959;-82
2022/04/30 01:50:03;;;;;;;52.67;25.40;;;;;;;2.22;66.61;99716.86;2248119;79;20896;-82
2022/04/30 01:53:03;;;;;;;53.00;27.03;;;;;;;2.02;67.22;99716.09;2248492;79;20895;-82
2022/04/30 01:56:03;;;;;;;54.97;27.67;;;;;;;1.89;67.58;99716.64;2248096;78;20931;-82
2022/04/30 01:59:04;;;;;;;52.80;27.03;;;;;;;1.81;67.89;99712.73;2248254;79;21338;-82
2022/04/30 02:02:04;;;;;;;48.70;24.60;;;;;;;1.75;68.19;99717.51;2248378;79;20865;-82
2022/04/30 02:05:06;;;;;;;59.40;27.23;;;;;;;1.66;68.51;99715.63;2248598;79;20949;-82
2022/04/30 02:08:05;;;;;;;49.47;24.77;;;;;;;1.59;68.55;99714.77;2248111;79;20979;-82
2022/04/30 02:11:05;;;;;;;54.47;25.97;;;;;;;1.55;68.83;99714.09;2247965;79;20934;-82
2022/04/30 02:14:06;;;;;;;52.03;25.00;;;;;;;1.49;69.16;99711.14;2247665;79;20932;-82
2022/04/30 02:17:06;;;;;;;50.80;25.40;;;;;;;1.44;69.32;99709.58;2248189;79;20955;-82
2022/04/30 02:20:19;;;;;;;53.70;24.03;;;;;;;1.40;69.53;99706.33;2248203;79;20927;-82
2022/04/30 02:23:22;;;;;;;159.30;29.67;;;;;;;1.38;69.78;99698.02;2248374;79;20907;-81
2022/04/30 02:26:19;;;;;;;51.53;24.47;;;;;;;1.34;69.82;99701.20;2248545;79;20935;-80
2022/04/30 02:29:20;;;;;;;53.50;26.27;;;;;;;1.28;69.84;99694.89;2247136;79;20924;-81
2022/04/30 02:32:20;;;;;;;53.97;25.53;;;;;;;1.26;70.01;99694.30;2246838;79;20978;-83
2022/04/30 02:35:21;;;;;;;124.33;28.77;;;;;;;1.25;70.00;99690.84;2246624;79;20982;-82
2022/04/30 02:38:21;;;;;;;61.23;25.93;;;;;;;1.32;70.83;99689.53;2246521;79;20975;-82
2022/04/30 02:41:22;;;;;;;53.87;23.17;;;;;;;1.38;70.35;99691.20;2246650;79;21379;-82
2022/04/30 02:44:25;;;;;;;53.47;24.33;;;;;;;1.32;69.84;99691.22;2247543;79;21022;-82
2022/04/30 02:47:22;;;;;;;153.50;29.70;;;;;;;1.19;70.08;99690.47;2248462;79;20959;-82
2022/04/30 02:50:23;;;;;;;60.87;25.50;;;;;;;1.11;70.26;99689.09;2248059;79;21263;-82
2022/04/30 02:53:23;;;;;;;53.13;24.27;;;;;;;1.07;70.21;99684.56;2247992;79;20943;-82
2022/04/30 02:56:24;;;;;;;48.53;24.77;;;;;;;1.04;70.38;99681.80;2256731;78;20977;-82
2022/04/30 03:02:43;;;;;;;54.40;24.03;;;;;;;0.95;70.42;99681.22;2262250;78;20990;-82
2022/04/30 03:05:44;;;;;;;44.57;23.77;;;;;;;0.88;70.49;99684.20;2262314;79;20875;-82
2022/04/30 03:08:45;;;;;;;52.37;23.80;;;;;;;0.85;70.81;99685.26;2262220;79;21284;-82
2022/04/30 03:11:45;;;;;;;51.87;24.80;;;;;;;0.84;70.87;99680.91;2261923;79;20978;-83
2022/04/30 03:14:45;;;;;;;81.87;25.93;;;;;;;0.84;70.97;99681.80;2260425;79;20947;-83
2022/04/30 03:24:27;;;;;;;55.73;22.90;;;;;;;0.85;71.14;99692.58;2260117;78;21398;-83
2022/04/30 03:27:24;;;;;;;51.07;22.20;;;;;;;0.89;71.13;99691.13;2259744;79;21020;-82
2022/04/30 03:30:24;;;;;;;52.07;22.90;;;;;;;0.89;70.90;99689.84;2261182;79;20911;-83
2022/04/30 03:33:26;;;;;;;54.60;23.70;;;;;;;0.92;70.81;99693.48;2261622;79;21452;-83
2022/04/30 03:36:28;;;;;;;49.00;24.30;;;;;;;0.95;70.86;99687.25;2261745;79;20953;-83
2022/04/30 03:39:28;;;;;;;46.03;22.30;;;;;;;1.01;71.16;99685.47;2262241;79;20970;-83
2022/04/30 03:42:28;;;;;;;54.93;22.93;;;;;;;1.08;71.03;99691.48;2262077;79;21279;-83
2022/04/30 03:45:28;;;;;;;56.40;23.60;;;;;;;1.12;70.90;99689.59;2261043;79;20883;-82
2022/04/30 03:48:29;;;;;;;56.63;23.10;;;;;;;1.15;71.08;99688.50;2260437;79;21017;-83
2022/04/30 03:51:29;;;;;;;57.93;23.27;;;;;;;1.21;70.99;99687.59;2260292;79;21968;-83
2022/04/30 03:54:30;;;;;;;55.00;23.60;;;;;;;1.27;70.95;99679.36;2259391;77;20999;-83
2022/04/30 03:57:31;;;;;;;54.60;22.33;;;;;;;1.35;71.18;99678.55;2259766;79;21002;-83
2022/04/30 04:00:30;;;;;;;49.80;24.57;;;;;;;1.44;71.12;99677.81;2259899;79;20942;-83
2022/04/30 04:03:31;;;;;;;50.27;21.80;;;;;;;1.56;71.20;99691.42;2259151;79;20962;-83
2022/04/30 04:06:31;;;;;;;51.23;21.70;;;;;;;1.64;71.11;99686.34;2259707;79;21010;-82
2022/04/30 04:09:32;;;;;;;45.90;21.13;;;;;;;1.74;71.00;99689.10;2259087;79;20997;-82
2022/04/30 04:12:32;;;;;;;46.53;22.17;;;;;;;1.86;70.97;99686.86;2259747;79;20919;-83
2022/04/30 04:18:51;;;;;;;46.10;20.90;;;;;;;2.15;70.85;99682.52;2258860;78;20971;-83
2022/04/30 04:21:52;;;;;;;40.47;20.90;;;;;;;2.30;70.59;99691.53;2258064;79;21053;-83
2022/04/30 04:28:11;;;;;;;47.07;21.73;;;;;;;2.59;70.45;99694.48;2259886;78;20954;-82
2022/04/30 04:31:11;;;;;;;41.43;20.90;;;;;;;2.81;70.54;99685.50;2259603;79;20938;-82
2022/04/30 04:34:12;;;;;;;44.80;22.33;;;;;;;3.04;70.53;99676.44;2261581;79;20915;-82
2022/04/30 04:37:12;;;;;;;47.57;23.60;;;;;;;3.38;70.58;99678.26;2261810;79;21022;-81
2022/04/30 04:40:13;;;;;;;43.57;23.20;;;;;;;3.56;70.55;99676.68;2261888;79;21370;-82
2022/04/30 04:43:14;;;;;;;83.13;42.07;;;;;;;3.69;70.17;99679.50;2261255;79;20981;-83
2022/04/30 04:46:14;;;;;;;53.37;25.57;;;;;;;3.94;70.05;99681.66;2261127;79;20950;-82
2022/04/30 04:49:14;;;;;;;53.43;24.90;;;;;;;4.23;69.77;99678.84;2260787;79;20965;-82
2022/04/30 04:52:15;;;;;;;53.30;25.47;;;;;;;4.51;69.49;99677.65;2259407;79;21318;-82
2022/04/30 04:55:15;;;;;;;103.27;27.13;;;;;;;4.83;69.78;99672.33;2259211;78;21021;-82
2022/04/30 04:58:16;;;;;;;60.23;26.47;;;;;;;5.15;68.85;99679.01;2254885;79;20947;-82
2022/04/30 05:01:16;;;;;;;53.93;25.97;;;;;;;5.47;68.25;99681.80;2254944;79;20888;-82
2022/04/30 05:04:16;;;;;;;74.53;29.93;;;;;;;5.82;68.11;99677.30;2254683;79;21278;-82
2022/04/30 05:07:17;;;;;;;57.93;28.43;;;;;;;6.23;67.70;99677.44;2254636;79;20966;-81
2022/04/30 05:10:17;;;;;;;401.63;48.73;;;;;;;6.66;67.62;99672.72;2253288;79;21353;-81
2022/04/30 05:13:17;;;;;;;69.37;31.23;;;;;;;6.99;66.68;99670.20;2252229;79;20947;-81
2022/04/30 05:16:18;;;;;;;67.17;32.40;;;;;;;7.38;64.98;99670.36;2252070;79;20974;-81
2022/04/30 05:19:18;;;;;;;67.53;31.67;;;;;;;7.64;64.24;99674.39;2251741;79;20946;-81
2022/04/30 05:22:19;;;;;;;46.60;26.67;;;;;;;8.04;63.33;99680.16;2252096;79;20950;-80
2022/04/30 05:25:19;;;;;;;43.33;25.57;;;;;;;8.36;62.17;99676.10;2253082;79;21381;-81
2022/04/30 05:28:20;;;;;;;50.90;26.07;;;;;;;8.57;61.12;99661.20;2254157;79;20960;-81
2022/04/30 05:31:20;;;;;;;42.77;25.77;;;;;;;8.76;60.53;99670.10;2255195;79;20954;-81
2022/04/30 05:34:21;;;;;;;45.10;25.20;;;;;;;8.91;60.12;99670.59;2253919;79;21334;-81
2022/04/30 05:37:22;;;;;;;43.57;23.70;;;;;;;9.15;60.22;99671.77;2253788;79;20986;-82
2022/04/30 05:40:22;;;;;;;34.67;21.17;;;;;;;9.47;59.22;99667.51;2253277;79;21937;-80
2022/04/30 05:43:22;;;;;;;34.17;21.67;;;;;;;9.76;58.12;99670.09;2254121;79;21009;-81
2022/04/30 05:46:23;;;;;;;41.70;21.20;;;;;;;10.05;57.46;99669.17;2253966;79;20943;-80
2022/04/30 05:49:23;;;;;;;32.60;20.17;;;;;;;10.35;57.39;99672.16;2254840;79;21275;-82
2022/04/30 05:52:24;;;;;;;33.67;20.83;;;;;;;10.59;56.41;99674.12;2254108;79;20955;-82
2022/04/30 05:55:24;;;;;;;33.37;18.90;;;;;;;10.77;56.07;99669.77;2252012;78;20964;-82
2022/04/30 05:58:24;;;;;;;31.97;17.93;;;;;;;10.93;55.59;99676.23;2246659;79;20975;-82
2022/04/30 06:01:25;;;;;;;31.80;17.17;;;;;;;11.18;53.95;99675.95;2245520;79;21271;-82
2022/04/30 06:04:25;;;;;;;28.00;17.23;;;;;;;11.38;54.15;99677.73;2244843;79;21023;-81
2022/04/30 06:07:26;;;;;;;24.07;15.90;;;;;;;11.70;53.58;99674.48;2245223;79;20990;-81
2022/04/30 06:10:26;;;;;;;33.70;15.83;;;;;;;12.03;52.32;99677.80;2246341;79;20970;-81
2022/04/30 06:13:26;;;;;;;27.87;15.60;;;;;;;12.25;52.38;99671.27;2247616;79;20906;-80
2022/04/30 06:16:27;;;;;;;22.55;14.63;;;;;;;12.48;52.21;99669.05;2246594;79;20990;-80
2022/04/30 06:19:27;;;;;;;26.57;14.40;;;;;;;12.66;51.40;99673.72;2246446;79;20903;-81
2022/04/30 06:22:28;;;;;;;19.57;13.62;;;;;;;13.05;50.36;99668.27;2246569;79;21002;-81
2022/04/30 06:25:29;;;;;;;21.65;13.28;;;;;;;13.18;48.95;99668.92;2246139;79;21334;-81
2022/04/30 06:28:28;;;;;;;17.32;12.73;;;;;;;13.27;48.48;99669.05;2245195;79;21025;-80
2022/04/30 06:31:29;;;;;;;16.95;11.97;;;;;;;13.39;47.79;99666.60;2245954;79;20986;-80
2022/04/30 06:34:29;;;;;;;16.75;12.35;;;;;;;13.54;46.32;99666.36;2246036;79;21302;-80
2022/04/30 06:37:29;;;;;;;16.17;12.18;;;;;;;13.68;45.63;99667.41;2247317;79;20908;-81
2022/04/30 06:40:31;;;;;;;15.72;11.80;;;;;;;13.62;45.60;99668.22;2247434;79;20975;-81
2022/04/30 06:43:30;;;;;;;16.80;11.80;;;;;;;13.65;46.38;99668.25;2246113;79;20942;-82
2022/04/30 06:46:31;;;;;;;41.35;14.13;;;;;;;13.84;46.20;99664.11;2245427;79;20950;-83
2022/04/30 06:49:31;;;;;;;20.97;12.47;;;;;;;14.13;45.86;99661.84;2244736;79;22136;-79
2022/04/30 06:52:31;;;;;;;19.98;12.85;;;;;;;14.37;46.54;99660.32;2244719;79;21968;-80
2022/04/30 06:58:54;;;;;;;15.65;11.93;;;;;;;14.74;45.56;99664.19;2259744;78;21007;-79
2022/04/30 07:01:59;;;;;;;18.02;12.20;;;;;;;14.71;46.15;99670.73;2259680;79;20998;-80
2022/04/30 07:04:52;;;;;;;19.02;12.20;;;;;;;15.12;45.95;99657.48;2261214;79;21390;-81
2022/04/30 07:07:52;;;;;;;16.52;12.58;;;;;;;15.50;45.34;99659.45;2260676;79;20973;-82
2022/04/30 07:10:52;;;;;;;19.48;11.93;;;;;;;15.74;45.10;99660.06;2261154;79;20943;-82
2022/04/30 07:13:53;;;;;;;17.00;12.53;;;;;;;16.08;44.57;99652.72;2260696;79;20938;-81
2022/04/30 07:16:53;;;;;;;15.38;11.40;;;;;;;16.26;43.87;99653.20;2260819;79;21002;-81
2022/04/30 07:19:53;;;;;;;13.48;10.98;;;;;;;16.60;43.71;99655.91;2261275;79;21330;-80
2022/04/30 07:22:54;;;;;;;17.87;10.55;;;;;;;16.72;41.46;99655.94;2260473;79;21002;-80
2022/04/30 07:25:54;;;;;;;16.93;10.90;;;;;;;16.85;41.67;99656.38;2260390;79;21042;-81
2022/04/30 07:28:55;;;;;;;14.03;9.40;;;;;;;17.04;41.12;99648.88;2259412;79;20974;-81
2022/04/30 07:31:55;;;;;;;12.90;9.03;;;;;;;17.22;37.21;99658.52;2259819;79;20970;-81
2022/04/30 07:34:55;;;;;;;14.00;8.58;;;;;;;17.37;37.45;99653.68;2259221;79;20995;-81
2022/04/30 07:37:56;;;;;;;8.88;7.97;;;;;;;17.63;37.08;99647.88;2259054;79;21049;-81
2022/04/30 07:40:56;;;;;;;10.78;8.40;;;;;;;17.60;34.75;99645.69;2259615;79;21216;-81
2022/04/30 07:43:57;;;;;;;9.40;7.17;;;;;;;17.50;36.53;99642.20;2259843;79;21329;-80
2022/04/30 07:46:59;;;;;;;11.70;7.53;;;;;;;17.45;35.02;99640.89;2228329;79;21934;-81
2022/04/30 07:49:59;;;;;;;7.72;5.75;;;;;;;17.40;34.22;99647.08;2259939;79;20954;-81
2022/04/30 07:53:00;;;;;;;6.42;5.15;;;;;;;17.30;34.71;99642.67;2259524;79;21096;-83
2022/04/30 07:56:00;;;;;;;9.55;5.17;;;;;;;17.44;34.16;99643.54;2260907;78;21006;-80
2022/04/30 07:59:01;;;;;;;11.30;6.20;;;;;;;17.66;34.34;99644.34;2258100;79;21366;-80
2022/04/30 08:02:01;;;;;;;8.35;5.85;;;;;;;17.74;33.20;99642.58;2258168;79;21006;-81
2022/04/30 08:05:02;;;;;;;8.18;5.70;;;;;;;17.61;33.21;99637.76;2256811;79;21241;-82
2022/04/30 08:08:02;;;;;;;6.90;5.53;;;;;;;17.67;33.17;99637.77;2257334;79;21327;-82
2022/04/30 08:11:02;;;;;;;9.40;5.15;;;;;;;17.61;32.44;99635.56;2257919;79;20973;-81
2022/04/30 08:14:03;;;;;;;7.55;5.40;;;;;;;17.44;32.72;99645.73;2257207;79;21366;-81
2022/04/30 08:17:06;;;;;;;7.85;6.03;;;;;;;17.67;32.74;99643.05;2257879;79;20985;-80
2022/04/30 08:20:06;;;;;;;5.85;5.17;;;;;;;17.85;32.16;99649.13;2256937;78;20970;-81
2022/04/30 08:23:07;;;;;;;8.10;5.25;;;;;;;17.92;32.55;99646.45;2256278;79;21013;-81
2022/04/30 08:26:07;;;;;;;8.45;5.35;;;;;;;17.82;30.44;99652.23;2256844;79;21018;-83
2022/04/30 08:29:07;;;;;;;6.17;5.53;;;;;;;17.70;29.82;99654.04;2256862;79;21350;-81
2022/04/30 08:32:08;;;;;;;9.88;5.42;;;;;;;17.64;31.03;99657.55;2256660;79;21385;-80
2022/04/30 08:35:08;;;;;;;7.90;5.60;;;;;;;17.61;30.39;99660.20;2257250;79;20975;-81
2022/04/30 08:38:08;;;;;;;8.15;6.03;;;;;;;17.79;31.49;99664.13;2257879;79;21314;-81
2022/04/30 08:41:10;;;;;;;8.00;6.15;;;;;;;17.93;31.47;99654.81;2258393;79;20930;-81
2022/04/30 08:44:09;;;;;;;8.60;6.40;;;;;;;18.11;32.23;99651.19;2257243;79;20986;-81
2022/04/30 08:47:11;;;;;;;12.37;6.15;;;;;;;18.42;31.92;99651.46;2257462;79;20970;-82
2022/04/30 08:50:10;;;;;;;10.28;6.20;;;;;;;18.46;31.43;99643.95;2259093;79;20930;-83
2022/04/30 08:53:11;;;;;;;8.35;6.08;;;;;;;18.52;32.45;99644.78;2258705;79;20975;-80
2022/04/30 08:56:11;;;;;;;6.97;5.35;;;;;;;18.51;30.60;99654.93;2258828;78;20947;-82
2022/04/30 08:59:11;;;;;;;6.20;5.17;;;;;;;18.32;31.51;99644.48;2259104;79;20950;-81
2022/04/30 09:02:12;;;;;;;5.72;5.08;;;;;;;18.28;31.66;99641.44;2258681;79;20907;-81
2022/04/30 09:05:12;;;;;;;7.42;5.10;;;;;;;18.52;31.54;99639.06;2258807;79;20906;-81
2022/04/30 09:08:12;;;;;;;6.22;4.42;;;;;;;18.63;30.47;99637.69;2258450;79;21477;-82
2022/04/30 09:11:13;;;;;;;5.75;4.65;;;;;;;18.66;30.70;99633.69;2258508;79;20907;-82
2022/04/30 09:14:13;;;;;;;5.90;5.08;;;;;;;18.61;29.99;99626.21;2258311;79;21238;-81
2022/04/30 09:17:14;;;;;;;6.67;5.00;;;;;;;18.42;30.38;99634.28;2258575;79;20939;-81
2022/04/30 09:20:14;;;;;;;5.78;4.83;;;;;;;18.48;30.59;99637.77;2258677;79;20904;-81
2022/04/30 09:23:14;;;;;;;7.58;4.30;;;;;;;18.36;30.04;99631.69;2258620;79;20970;-81
2022/04/30 09:26:15;;;;;;;8.65;4.62;;;;;;;18.36;30.34;99633.45;2258915;79;21278;-81
2022/04/30 09:29:15;;;;;;;5.80;4.20;;;;;;;18.38;30.08;99633.88;2258372;79;20939;-81
2022/04/30 09:32:16;;;;;;;6.78;4.45;;;;;;;18.54;30.01;99628.47;2258956;79;20947;-82
2022/04/30 09:38:35;;;;;;;5.53;3.90;;;;;;;18.89;29.14;99618.50;2256788;78;20958;-81
2022/04/30 09:41:35;;;;;;;5.05;4.00;;;;;;;19.05;28.97;99614.81;2256065;79;21074;-82
2022/04/30 09:44:37;;;;;;;8.53;3.90;;;;;;;19.22;29.44;99613.34;2256743;79;20951;-82
2022/04/30 09:47:36;;;;;;;6.37;3.98;;;;;;;19.43;29.26;99609.57;2256047;79;21347;-82
2022/04/30 09:54:00;;;;;;;6.87;4.33;;;;;;;19.72;28.86;99604.82;2255437;78;20978;-83
2022/04/30 09:56:59;;;;;;;4.17;3.77;;;;;;;19.96;28.36;99600.13;2254992;79;21029;-83
2022/04/30 09:59:59;;;;;;;4.67;3.80;;;;;;;20.16;27.78;99599.83;2252321;79;21588;-83
2022/04/30 10:03:00;;;;;;;8.43;4.33;;;;;;;20.15;27.82;99591.00;2252873;79;20958;-81
2022/04/30 10:06:00;;;;;;;7.47;4.03;;;;;;;20.25;27.50;99591.29;2254340;79;20927;-82
2022/04/30 10:09:00;;;;;;;7.45;4.92;;;;;;;20.30;27.07;99585.91;2254045;79;20982;-81
2022/04/30 10:12:01;;;;;;;6.03;3.83;;;;;;;20.24;26.93;99588.66;2252972;79;21009;-79
2022/04/30 10:15:01;;;;;;;5.62;4.37;;;;;;;20.24;26.92;99582.91;2251928;79;21666;-81
2022/04/30 10:18:02;;;;;;;5.85;4.25;;;;;;;19.98;27.75;99583.30;2252621;79;21030;-81
2022/04/30 10:21:06;;;;;;;9.60;4.35;;;;;;;19.80;26.98;99580.00;2252438;79;20984;-78
2022/04/30 10:24:02;;;;;;;5.87;4.15;;;;;;;19.64;27.01;99582.86;2252266;79;21353;-81
2022/04/30 10:27:03;;;;;;;5.37;4.30;;;;;;;19.70;27.26;99570.86;2253267;79;21043;-80
2022/04/30 10:30:05;;;;;;;8.88;5.78;;;;;;;19.80;26.94;99572.94;2253201;79;20970;-80
2022/04/30 10:33:06;;;;;;;5.97;4.67;;;;;;;19.96;27.67;99569.64;2253957;79;20911;-78
2022/04/30 10:36:04;;;;;;;9.60;4.55;;;;;;;19.81;26.72;99569.83;2254006;79;21050;-79
2022/04/30 10:39:09;;;;;;;4.50;3.90;;;;;;;19.70;26.86;99565.56;2254261;79;21848;-80
2022/04/30 10:42:06;;;;;;;5.35;4.00;;;;;;;19.58;27.20;99560.42;2253880;79;20943;-81
2022/04/30 10:45:07;;;;;;;4.97;4.03;;;;;;;19.62;27.49;99555.97;2253747;79;20999;-82
2022/04/30 10:48:06;;;;;;;7.03;4.15;;;;;;;19.72;27.19;99558.47;2255120;79;20895;-81
2022/04/30 10:51:06;;;;;;;5.15;4.05;;;;;;;19.86;27.41;99551.65;2255283;79;20954;-80
2022/04/30 10:54:13;;;;;;;8.48;3.87;;;;;;;20.22;27.18;99552.90;2254627;79;20986;-80
2022/04/30 10:57:13;;;;;;;8.28;4.33;;;;;;;20.51;26.83;99552.45;2255443;78;20959;-79
2022/04/30 11:00:13;;;;;;;6.22;3.87;;;;;;;20.50;25.98;99552.02;2254304;79;20996;-81
2022/04/30 11:03:13;;;;;;;6.37;3.70;;;;;;;20.13;26.19;99549.52;2253871;79;21326;-79
2022/04/30 11:06:13;;;;;;;4.67;3.25;;;;;;;19.99;25.73;99550.61;2253802;79;20920;-80
2022/04/30 11:09:14;;;;;;;5.10;3.22;;;;;;;20.18;25.27;99544.57;2253636;79;21256;-80
2022/04/30 11:12:14;;;;;;;6.08;3.58;;;;;;;20.34;25.66;99544.74;2254106;79;21302;-80
2022/04/30 11:15:15;;;;;;;5.83;3.85;;;;;;;20.57;26.19;99544.84;2253637;79;20974;-79
2022/04/30 11:18:15;;;;;;;7.40;3.45;;;;;;;20.71;25.17;99548.12;2253721;79;20927;-80
2022/04/30 11:21:15;;;;;;;4.53;3.40;;;;;;;20.49;24.63;99545.42;2252840;79;20927;-80
2022/04/30 11:24:16;;;;;;;3.90;3.55;;;;;;;20.38;23.73;99543.37;2252036;79;21692;-80
2022/04/30 11:27:16;;;;;;;5.05;3.85;;;;;;;19.87;23.74;99548.55;2252700;79;21025;-79
2022/04/30 11:30:17;;;;;;;6.17;4.28;;;;;;;19.69;24.16;99534.67;2253144;79;20927;-79
2022/04/30 11:33:17;;;;;;;6.03;4.33;;;;;;;19.67;24.29;99532.50;2253038;79;20947;-80
2022/04/30 11:36:18;;;;;;;5.00;3.70;;;;;;;19.73;24.72;99533.73;2254532;79;20967;-80
2022/04/30 11:39:18;;;;;;;6.22;3.77;;;;;;;19.96;24.27;99526.80;2255421;79;20946;-81
2022/04/30 11:42:19;;;;;;;7.90;4.15;;;;;;;20.12;24.35;99522.14;2254938;79;21338;-81
2022/04/30 11:45:19;;;;;;;4.30;3.87;;;;;;;20.31;24.69;99516.08;2254896;79;20931;-80
2022/04/30 11:48:19;;;;;;;3.67;3.25;;;;;;;20.61;24.02;99516.03;2254887;79;21026;-80
2022/04/30 11:51:20;;;;;;;4.72;4.08;;;;;;;20.86;24.25;99517.81;2255137;79;21259;-79
2022/04/30 11:54:20;;;;;;;5.00;4.20;;;;;;;21.10;23.97;99513.34;2255397;79;21002;-80
2022/04/30 11:57:21;;;;;;;7.17;4.22;;;;;;;21.24;24.10;99512.64;2253146;78;20971;-79
2022/04/30 12:00:21;;;;;;;5.53;3.90;;;;;;;21.18;24.03;99508.75;2246510;79;21425;-80
2022/04/30 12:03:21;;;;;;;7.47;4.30;;;;;;;21.18;23.99;99511.41;2247209;79;20979;-81
2022/04/30 12:06:21;;;;;;;7.28;4.87;;;;;;;21.08;23.80;99505.87;2248378;79;20876;-79
2022/04/30 12:09:22;;;;;;;8.00;4.90;;;;;;;20.98;24.56;99501.65;2247534;79;20904;-79
2022/04/30 12:12:22;;;;;;;9.45;5.15;;;;;;;20.93;23.91;99503.52;2247579;79;21018;-80
2022/04/30 12:15:23;;;;;;;6.97;5.25;;;;;;;20.54;24.32;99507.31;2247063;79;21319;-81
2022/04/30 12:25:01;;;;;;;7.97;4.67;;;;;;;20.58;24.99;99478.95;2246235;78;21057;-80
2022/04/30 12:28:04;;;;;;;6.00;5.40;;;;;;;20.58;24.65;99480.28;2246779;79;20978;-80
2022/04/30 12:31:04;;;;;;;9.30;5.50;;;;;;;20.46;25.53;99477.85;2246626;79;21311;-80
2022/04/30 12:34:05;;;;;;;7.40;5.50;;;;;;;20.51;25.80;99474.22;2246514;79;20978;-80
2022/04/30 12:37:05;;;;;;;9.88;6.22;;;;;;;20.48;26.12;99478.25;2247023;79;20994;-78
2022/04/30 12:40:05;;;;;;;7.65;5.25;;;;;;;20.22;25.81;99469.84;2247058;79;21035;-79
2022/04/30 12:43:06;;;;;;;9.63;5.12;;;;;;;20.13;26.53;99467.36;2247115;79;20966;-80
2022/04/30 12:46:07;;;;;;;6.37;5.47;;;;;;;20.10;26.39;99472.25;2248356;79;20955;-80
2022/04/30 12:49:07;;;;;;;7.83;5.45;;;;;;;20.28;26.40;99465.31;2249035;79;20935;-80
2022/04/30 12:52:07;;;;;;;7.22;5.05;;;;;;;20.26;25.89;99457.84;2248575;79;20988;-80
2022/04/30 12:55:07;;;;;;;5.75;5.15;;;;;;;20.44;25.57;99458.45;2248364;79;20967;-79
2022/04/30 12:58:08;;;;;;;5.90;5.40;;;;;;;20.49;25.77;99452.16;2254214;79;20950;-79
2022/04/30 13:01:08;;;;;;;5.97;4.95;;;;;;;20.33;25.81;99451.52;2262935;79;20892;-80
2022/04/30 13:04:09;;;;;;;4.92;4.53;;;;;;;20.49;26.34;99442.00;2262321;79;21357;-80
2022/04/30 13:07:09;;;;;;;7.12;4.80;;;;;;;20.61;25.64;99441.77;2262594;79;20942;-80
2022/04/30 13:13:31;;;;;;;8.53;5.35;;;;;;;20.28;26.57;99453.38;2262799;78;20945;-79
2022/04/30 13:16:32;;;;;;;8.25;5.50;;;;;;;20.00;26.64;99442.84;2262301;78;20983;-80
2022/04/30 13:19:32;;;;;;;11.75;5.42;;;;;;;19.95;26.60;99433.64;2261646;79;21310;-79
2022/04/30 13:22:33;;;;;;;6.28;5.10;;;;;;;19.82;26.92;99439.13;2262254;79;20946;-79
2022/04/30 13:25:33;;;;;;;7.20;5.53;;;;;;;19.71;26.46;99436.20;2261917;79;21001;-79
2022/04/30 13:28:33;;;;;;;7.60;5.00;;;;;;;19.49;27.04;99437.39;2262089;79;20942;-78
2022/04/30 13:31:34;;;;;;;5.37;4.80;;;;;;;19.31;27.09;99437.66;2262359;79;21013;-79
2022/04/30 13:34:34;;;;;;;6.22;5.10;;;;;;;19.29;27.42;99435.03;2262222;79;20963;-79
2022/04/30 13:37:40;;;;;;;5.78;5.28;;;;;;;19.20;27.47;99434.28;2262116;79;20906;-81
2022/04/30 13:40:37;;;;;;;7.72;5.20;;;;;;;19.17;27.18;99427.27;2229860;79;20967;-79
2022/04/30 13:43:37;;;;;;;6.90;5.25;;;;;;;19.17;27.48;99423.74;2262265;79;21275;-80
2022/04/30 13:46:38;;;;;;;5.50;4.47;;;;;;;19.31;27.79;99420.45;2263087;79;20872;-81
2022/04/30 13:49:38;;;;;;;4.72;4.20;;;;;;;19.40;27.30;99417.67;2262612;79;20928;-79
2022/04/30 13:52:38;;;;;;;8.05;4.28;;;;;;;19.54;27.65;99410.88;2262760;79;20982;-80
2022/04/30 13:55:39;;;;;;;6.55;5.17;;;;;;;19.66;27.17;99404.95;2262299;79;20939;-80
2022/04/30 13:58:39;;;;;;;9.73;5.37;;;;;;;19.60;26.89;99413.44;2262249;77;21386;-80
2022/04/30 14:01:40;;;;;;;5.80;5.03;;;;;;;19.44;27.29;99414.53;2262700;79;20911;-79
2022/04/30 14:04:40;;;;;;;7.33;5.05;;;;;;;19.42;27.42;99409.27;2262666;79;20942;-81
2022/04/30 14:07:40;;;;;;;7.95;4.97;;;;;;;19.51;27.27;99404.27;2262794;79;20935;-79
2022/04/30 14:10:41;;;;;;;6.60;5.83;;;;;;;19.68;27.75;99399.63;2262383;79;20906;-80
2022/04/30 14:17:01;;;;;;;7.17;4.80;;;;;;;20.04;27.60;99399.48;2261352;78;20924;-80
2022/04/30 14:20:00;;;;;;;5.83;4.85;;;;;;;20.13;27.24;99395.34;2262245;79;20958;-80
2022/04/30 14:23:01;;;;;;;7.67;6.12;;;;;;;20.47;26.64;99388.12;2262673;79;20910;-79
2022/04/30 14:26:02;;;;;;;8.50;6.30;;;;;;;20.69;26.78;99386.78;2262461;79;21326;-80
2022/04/30 14:29:02;;;;;;;6.15;5.55;;;;;;;20.77;26.33;99388.83;2262462;79;20931;-80
2022/04/30 14:32:02;;;;;;;5.65;5.12;;;;;;;20.58;26.52;99385.67;2262692;79;20906;-80
2022/04/30 14:35:03;;;;;;;9.98;5.53;;;;;;;20.63;26.76;99387.78;2262691;79;20929;-80
2022/04/30 14:38:05;;;;;;;5.75;4.67;;;;;;;20.63;26.42;99380.28;2262406;79;20896;-80
2022/04/30 14:41:04;;;;;;;7.42;5.03;;;;;;;20.56;26.92;99380.85;2262443;79;20927;-80
2022/04/30 14:44:04;;;;;;;6.25;5.17;;;;;;;20.66;26.82;99377.56;2262490;79;20958;-81
2022/04/30 14:47:04;;;;;;;7.35;5.28;;;;;;;20.62;26.90;99379.41;2262302;79;20938;-80